Latest Coastal Weather Observations for Weipa

IDQ60701

Issued at 12:12 pm EST Tuesday 15 October 2019 (issued every 10 minutes, with the page automatically refreshed every 10 minutes)

About coastal observations | Map of coastal stations | Coastal observations for QLD | Marine services | Other Formats
Station Details ID: 027045 Name: WEIPA AERO Lat: -12.68 Lon: 141.92 Height: 17.96 m
Data from the previous 72 hours. | See also: Recent months at Weipa
Date/Time
EST
Wind Sea
Height
m
Swell Vis
km
Cloud Weather Temp
°C
Press
hPa
Rain since
9am
mm
Dir  Spd
kts
Gust
kts
Height
m
Period
s
Dir
15/12:00pm ESE 10 17 - - - - 10 Clear - 32.5 1012.4 0.0
15/11:30am SE 11 19 - - - - 10 - - 30.9 1013.1 0.0
15/11:00am ESE 11 16 - - - - 10 - - 31.0 1013.6 0.0
15/10:30am ESE 11 17 - - - - 10 - - 29.2 1014.0 0.0
15/10:00am E 12 17 - - - - 10 - - 28.7 1014.2 0.0
15/09:30am E 12 18 - - - - 10 - - 27.8 1014.5 0.0
15/09:00am E 14 20 - - - - 10 - - 27.0 1014.8 -
15/08:30am ESE 10 15 - - - - 10 - - 26.0 1014.7 -
15/08:00am SE 7 9 - - - - 10 - - 24.0 1014.6 -
15/07:30am SE 6 8 - - - - 10 - - 22.3 1014.5 -
15/07:00am SE 4 6 - - - - 10 - - 21.4 1014.3 -
15/06:30am SE 4 5 - - - - 10 - - 19.4 1014.0 -
15/06:00am SE 3 4 - - - - 10 - - 19.0 1013.9 -
15/05:30am CALM 0 0 - - - - 10 - - 19.2 1013.7 -
15/05:00am CALM 0 0 - - - - 10 - - 19.7 1013.5 -
15/04:30am CALM 0 0 - - - - 10 - - 19.6 1013.3 -
15/04:00am CALM 0 0 - - - - 10 Partly cloudy - 19.9 1013.1 -
15/03:30am CALM 0 0 - - - - 10 Partly cloudy - 19.8 1013.1 -
15/03:00am CALM 0 0 - - - - 10 - - 19.9 1013.2 0.0
15/02:30am CALM 0 0 - - - - 10 - - 19.9 1013.3 -
15/02:00am CALM 0 0 - - - - 10 - - 21.0 1013.4 -
15/01:30am ESE 3 4 - - - - 10 - - 21.6 1013.5 -
15/01:00am ESE 5 6 - - - - 10 - - 22.5 1013.7 -
15/12:30am E 5 6 - - - - 10 - - 23.1 1014.2 -
15/12:00am ENE 4 5 - - - - 10 - - 23.3 1014.5 -
 
Date/Time
EST
Wind Sea
Height
m
Swell Vis
km
Cloud Weather Temp
°C
Press
hPa
Rain since
9am
mm
Dir  Spd
kts
Gust
kts
Height
m
Period
s
Dir
14/11:30pm E 5 7 - - - - 10 - - 24.2 1014.6 -
14/11:00pm E 5 6 - - - - 10 - - 24.7 1014.6 -
14/10:30pm E 5 6 - - - - 10 - - 25.3 1014.5 -
14/10:00pm E 7 10 - - - - 10 - - 26.2 1014.3 -
14/09:30pm ENE 8 11 - - - - 10 - - 26.5 1013.9 -
14/09:00pm ENE 7 9 - - - - 10 - - 26.9 1013.6 -
14/08:30pm NE 1 9 - - - - 10 - - 26.7 1013.1 -
14/08:00pm N 2 6 - - - - 10 - - 26.7 1012.8 -
14/07:30pm W 2 4 - - - - 10 - - 26.9 1012.3 -
14/07:00pm W 4 6 - - - - 10 - - 27.2 1011.9 -
14/06:30pm WNW 6 8 - - - - 10 - - 27.7 1011.4 -
14/06:00pm WNW 8 11 - - - - 10 - - 28.7 1010.8 -
14/05:30pm WNW 8 11 - - - - 10 - - 28.9 1010.3 -
14/05:00pm WNW 10 15 - - - - 10 - - 29.5 1010.0 -
14/04:30pm W 10 15 - - - - 10 - - 30.7 1009.4 -
14/04:00pm W 8 11 - - - - - Partly cloudy - 33.3 1009.3 -
14/03:30pm WNW 9 14 - - - - 10 - - 32.7 1009.5 -
14/02:00pm ENE 9 14 - - - - 10 Partly cloudy - 35.7 1010.3 0.0
14/01:30pm SE 8 16 - - - - 10 Partly cloudy - 35.3 1011.0 0.0
14/01:00pm ESE 10 15 - - - - 10 - - 35.6 1011.5 0.0
14/12:30pm SE 6 12 - - - - 10 - - 33.3 1012.3 0.0
14/12:00pm ENE 7 14 - - - - 10 - - 32.6 1013.0 0.0
14/11:30am ESE 9 14 - - - - 10 - - 32.1 1013.6 0.0
14/11:00am ESE 9 14 - - - - 10 - - 31.6 1014.2 0.0
14/10:30am ESE 10 15 - - - - 10 - - 30.6 1014.4 0.0
14/10:00am ESE 11 15 - - - - 10 - - 29.4 1014.6 0.0
14/09:30am ESE 11 15 - - - - 10 - - 28.7 1014.6 0.0
14/09:00am ESE 13 17 - - - - - Mostly clear - 27.1 1014.7 0.0
14/08:30am ESE 11 15 - - - - - Partly cloudy - 26.8 1014.7 0.0
14/08:00am ESE 10 12 - - - - - - - 25.5 1014.6 0.0
14/07:30am ESE 10 12 - - - - - - - 24.2 1014.2 0.0
14/07:00am ESE 6 8 - - - - - - - 23.2 1013.9 0.0
14/06:30am ESE 8 10 - - - - - - - 22.7 1013.4 0.0
14/06:00am ESE 5 7 - - - - - - - 22.3 1013.0 0.0
14/05:30am ESE 6 7 - - - - - - - 22.1 1012.8 0.0
14/05:00am E 2 5 - - - - - - - 20.9 1012.6 0.0
14/04:30am SE 4 5 - - - - - - - 20.6 1012.4 0.0
14/04:00am SE 3 4 - - - - - - - 21.0 1012.2 0.0
14/03:30am ESE 2 4 - - - - 10 - - 21.1 1012.3 0.0
14/03:00am E 3 4 - - - - 10 - - 22.0 1012.4 0.0
14/02:30am E 4 4 - - - - 10 - - 22.5 1012.5 0.0
14/02:00am E 4 5 - - - - 10 - - 22.8 1012.9 0.0
14/01:30am E 5 6 - - - - 10 - - 23.2 1013.1 0.0
14/01:00am E 7 8 - - - - 10 - - 23.4 1013.5 0.0
14/12:30am ENE 8 11 - - - - 10 - - 23.8 1013.5 0.0
14/12:00am ENE 8 9 - - - - 10 - - 24.1 1013.9 0.0
 
Date/Time
EST
Wind Sea
Height
m
Swell Vis
km
Cloud Weather Temp
°C
Press
hPa
Rain since
9am
mm
Dir  Spd
kts
Gust
kts
Height
m
Period
s
Dir
13/11:30pm ENE 7 9 - - - - 10 - - 24.5 1014.0 0.0
13/11:00pm ENE 7 8 - - - - 10 - - 24.9 1014.0 0.0
13/10:30pm NE 6 8 - - - - 10 - - 25.3 1013.9 0.0
13/10:00pm NE 6 9 - - - - 10 - - 26.0 1013.6 0.0
13/09:30pm NE 8 12 - - - - 10 Partly cloudy - 26.8 1013.2 0.0
13/09:00pm NE 5 6 - - - - 10 Cloudy - 26.8 1012.7 0.0
13/08:30pm N 4 5 - - - - 10 Cloudy - 27.0 1012.2 0.0
13/08:00pm NNW 4 5 - - - - 10 Partly cloudy - 27.2 1011.6 0.0
13/07:30pm NW 4 6 - - - - 10 - - 27.1 1011.0 0.0
13/07:00pm W 4 6 - - - - 10 - - 27.0 1010.6 0.0
13/06:30pm WNW 7 11 - - - - 10 Partly cloudy - 27.2 1010.0 0.0
13/06:00pm NW 9 14 - - - - 10 Mostly clear - 27.4 1009.7 0.0
13/05:30pm W 9 15 - - - - 10 - - 27.5 1009.0 0.0
13/05:00pm W 11 15 - - - - 10 - - 27.7 1008.8 0.0
13/04:30pm W 9 13 - - - - 10 - - 28.5 1008.9 0.0
13/04:00pm W 11 16 - - - - 10 Partly cloudy - 27.8 1008.9 0.0
13/03:30pm W 12 19 - - - - 10 - - 29.0 1009.1 0.0
13/03:00pm WNW 11 15 - - - - 10 - - 30.8 1009.2 0.0
13/02:30pm W 9 13 - - - - 10 - - 31.2 1009.3 0.0
13/02:00pm W 9 15 - - - - 10 - - 31.7 1009.6 0.0
13/01:30pm W 9 13 - - - - 10 - - 34.2 1009.8 0.0
13/01:00pm WNW 6 9 - - - - 10 Partly cloudy - 34.5 1010.5 0.0
13/12:30pm SW 5 8 - - - - 10 - - 34.2 1011.1 0.0
13/12:00pm S 3 6 - - - - 10 - - 33.5 1011.9 0.0
13/11:30am SSE 4 7 - - - - 10 - - 32.4 1012.5 0.0
13/11:00am ESE 5 8 - - - - 10 - - 31.7 1013.1 0.0
13/10:30am ENE 5 7 - - - - 10 - - 30.7 1013.4 0.0
13/10:00am NE 4 8 - - - - 10 - - 29.1 1013.6 0.0
13/09:30am NE 6 9 - - - - 10 - - 27.9 1013.9 0.0
13/09:00am ENE 8 11 - - - - - - - 27.7 1014.0 0.0
13/08:30am NE 10 13 - - - - - - - 25.6 1014.0 0.0
13/08:00am NE 7 10 - - - - - - - 24.7 1013.9 0.0
13/07:30am NE 5 7 - - - - - - - 23.0 1013.4 0.0
13/07:00am ENE 6 8 - - - - - - - 22.0 1012.9 0.0
13/06:30am ENE 5 7 - - - - - - - 21.6 1012.5 0.0
13/06:00am ENE 4 5 - - - - - - - 21.5 1012.0 0.0
13/05:30am E 3 4 - - - - - - - 21.4 1011.5 0.0
13/05:00am ENE 3 4 - - - - - - - 21.6 1011.3 0.0
13/04:30am E 4 5 - - - - - - - 21.7 1011.0 0.0
13/04:00am E 3 4 - - - - - - - 22.1 1010.8 0.0
13/03:30am E 3 4 - - - - - - - 21.9 1010.7 0.0
13/03:00am E 4 5 - - - - - - - 22.1 1010.8 0.0
13/02:30am E 3 4 - - - - - - - 22.4 1010.8 0.0
13/02:00am SE 3 4 - - - - - - - 22.1 1010.7 0.0
13/01:30am NE 3 5 - - - - - - - 22.7 1010.7 0.0
13/01:00am NE 5 7 - - - - - - - 22.9 1010.8 0.0
13/12:30am NNE 4 5 - - - - - - - 22.8 1011.2 0.0
13/12:00am ESE 2 3 - - - - 10 - - 23.1 1011.3 0.0
 
Date/Time
EST
Wind Sea
Height
m
Swell Vis
km
Cloud Weather Temp
°C
Press
hPa
Rain since
9am
mm
Dir  Spd
kts
Gust
kts
Height
m
Period
s
Dir
12/11:30pm SE 3 4 - - - - 10 Partly cloudy - 22.9 1011.4 0.0
12/11:00pm CALM 0 0 - - - - 10 Partly cloudy - 23.4 1011.5 0.0
12/10:30pm NNW 4 5 - - - - 10 - - 24.0 1011.6 0.0
12/10:00pm CALM 0 0 - - - - 10 - - 24.6 1011.7 0.0
12/09:30pm NNE 3 5 - - - - 10 - - 24.9 1011.4 0.0
12/09:00pm NNE 3 5 - - - - 10 Mostly clear - 25.2 1010.9 0.0
12/08:30pm N 3 6 - - - - 10 Partly cloudy - 25.6 1010.7 0.0
12/08:00pm NNW 4 6 - - - - 10 - - 25.9 1010.2 0.0
12/07:30pm WSW 7 11 - - - - 10 - - 25.8 1009.3 0.0
12/07:00pm W 8 12 - - - - 10 - - 26.0 1009.0 0.0
12/06:30pm W 8 14 - - - - 10 Partly cloudy - 26.3 1008.7 0.0
12/06:00pm W 10 14 - - - - 10 - - 26.9 1008.5 0.0
12/05:30pm W 10 17 - - - - 10 - - 27.6 1008.1 0.0
12/05:00pm W 10 14 - - - - 10 - - 28.1 1007.7 0.0
12/04:30pm W 12 19 - - - - 10 - - 29.0 1007.6 0.0
12/04:00pm W 11 18 - - - - 10 - - 28.6 1007.7 0.0
12/03:30pm W 12 18 - - - - 10 - - 29.0 1007.9 0.0
12/03:00pm W 13 18 - - - - 10 - - 29.8 1008.2 0.0
12/02:30pm WNW 11 14 - - - - 10 - - 30.7 1008.4 0.0
12/02:00pm WNW 11 14 - - - - 10 - - 30.5 1008.8 0.0
12/01:30pm W 9 13 - - - - 10 - - 31.6 1009.1 0.0
12/01:00pm W 9 14 - - - - 10 - - 31.4 1009.6 0.0
12/12:30pm W 7 11 - - - - 10 - - 31.7 1010.1 0.0

Other formats

Comma delimited format used in spreadsheet applications
http://www.bom.gov.au/fwo/IDQ60701/IDQ60701.94170.axf

JavaScript Object Notation format (JSON) in row-major order
http://www.bom.gov.au/fwo/IDQ60701/IDQ60701.94170.json

Data quality

Most of these data are generated automatically and are frequently updated. Quality checks on data are not normally performed. It is possible for incorrect values to appear. Refer to information at About Latest Weather Observations and please check the disclaimer before using these data.